Time;durP1;ratioP1;P1;durP2;ratioP2;P2;SDS_P1;SDS_P2;PMS_P1;PMS_P2;Temp;Humidity;BMP_temperature;BMP_pressure;BME280_temperature;BME280_humidity;BME280_pressure;Samples;Min_cycle;Max_cycle;Signal;HPM_P1;HPM_P2
2023/08/20 00:01:25;;;;;;;13.07;5.87;;;20.40;99.90;;;;;;5010437;28;20725;-62
2023/08/20 00:03:52;;;;;;;9.90;5.20;;;20.30;99.90;;;;;;5012059;28;20179;-62
2023/08/20 00:06:18;;;;;;;9.83;4.97;;;20.30;99.90;;;;;;5012177;28;20583;-62
2023/08/20 00:08:44;;;;;;;12.80;4.67;;;20.30;99.90;;;;;;4993264;28;20514;-62
2023/08/20 00:11:12;;;;;;;7.33;3.80;;;20.30;99.90;;;;;;5001239;28;20510;-62
2023/08/20 00:13:38;;;;;;;14.07;6.20;;;20.30;99.90;;;;;;5004112;28;20282;-62
2023/08/20 00:16:04;;;;;;;6.67;4.20;;;20.20;99.90;;;;;;5011715;28;20528;-62
2023/08/20 00:18:30;;;;;;;7.33;4.27;;;20.30;99.90;;;;;;5012354;28;20194;-64
2023/08/20 00:20:56;;;;;;;6.93;4.13;;;20.30;99.90;;;;;;5012276;28;20933;-64
2023/08/20 00:23:22;;;;;;;14.80;5.40;;;20.30;99.90;;;;;;5012118;28;20219;-65
2023/08/20 00:25:48;;;;;;;6.60;4.30;;;20.30;99.90;;;;;;5012136;28;20211;-64
2023/08/20 00:28:14;;;;;;;7.33;4.97;;;20.20;99.90;;;;;;5011637;28;20425;-64
2023/08/20 00:30:39;;;;;;;7.60;5.37;;;20.30;99.90;;;;;;5011590;28;20724;-64
2023/08/20 00:33:05;;;;;;;17.87;6.50;;;20.20;99.90;;;;;;5000948;28;20168;-65
2023/08/20 00:35:31;;;;;;;9.57;5.10;;;20.20;99.90;;;;;;4999579;28;20234;-65
2023/08/20 00:37:57;;;;;;;11.00;5.57;;;20.20;99.90;;;;;;5012073;28;20266;-65
2023/08/20 00:40:23;;;;;;;8.77;5.20;;;20.20;99.90;;;;;;5011748;28;20270;-64
2023/08/20 00:42:49;;;;;;;9.03;5.47;;;20.20;99.90;;;;;;5011675;28;20198;-65
2023/08/20 00:45:16;;;;;;;13.93;5.03;;;20.10;99.90;;;;;;5011278;28;20195;-64
2023/08/20 00:47:42;;;;;;;6.43;4.03;;;20.10;99.90;;;;;;5011675;28;20418;-64
2023/08/20 00:50:08;;;;;;;8.53;5.00;;;20.10;99.90;;;;;;5011703;28;20426;-65
2023/08/20 00:52:35;;;;;;;6.50;4.63;;;20.00;99.90;;;;;;5011741;28;20214;-65
2023/08/20 00:55:08;;;;;;;8.13;4.63;;;20.00;99.90;;;;;;5011651;28;20430;-65
2023/08/20 00:57:34;;;;;;;12.70;5.67;;;20.00;99.90;;;;;;5010881;28;20891;-65
2023/08/20 01:00:00;;;;;;;7.00;4.97;;;20.00;99.90;;;;;;5011424;28;20521;-64
2023/08/20 01:02:26;;;;;;;7.60;5.30;;;19.90;99.90;;;;;;5009158;28;20458;-65
2023/08/20 01:04:52;;;;;;;9.17;4.80;;;19.90;99.90;;;;;;5000904;28;20925;-64
2023/08/20 01:07:33;;;;;;;8.70;4.30;;;19.90;99.90;;;;;;4997242;28;20176;-65
2023/08/20 01:10:05;;;;;;;8.90;4.70;;;19.90;99.90;;;;;;4998683;28;20186;-64
2023/08/20 01:12:33;;;;;;;10.80;5.80;;;19.80;99.90;;;;;;5007232;28;20940;-64
2023/08/20 01:14:59;;;;;;;10.63;5.00;;;19.80;99.90;;;;;;5011402;28;20418;-65
2023/08/20 01:17:25;;;;;;;7.83;4.90;;;19.80;99.90;;;;;;5010974;28;20757;-65
2023/08/20 01:19:50;;;;;;;14.60;5.23;;;19.80;99.90;;;;;;5011583;28;20290;-65
2023/08/20 01:22:28;;;;;;;8.60;5.27;;;19.80;99.90;;;;;;5011349;28;20309;-64
2023/08/20 01:25:30;;;;;;;9.93;5.53;;;19.80;99.90;;;;;;5010866;28;20242;-65
2023/08/20 01:27:58;;;;;;;9.07;5.87;;;19.70;99.90;;;;;;4992208;28;20509;-65
2023/08/20 01:30:25;;;;;;;11.03;5.70;;;19.80;99.90;;;;;;5009802;28;20469;-65
2023/08/20 01:32:53;;;;;;;6.53;4.67;;;19.80;99.90;;;;;;4987260;28;20517;-64
2023/08/20 01:35:18;;;;;;;11.53;5.43;;;19.80;99.90;;;;;;4993370;28;20418;-64
2023/08/20 01:37:44;;;;;;;10.03;5.33;;;19.80;99.90;;;;;;4993902;28;20469;-65
2023/08/20 01:40:10;;;;;;;20.33;5.70;;;19.80;99.90;;;;;;5002240;28;20210;-64
2023/08/20 01:42:40;;;;;;;11.40;4.83;;;19.70;99.90;;;;;;5009996;28;20177;-65
2023/08/20 01:45:06;;;;;;;8.27;5.00;;;19.70;99.90;;;;;;5010332;28;20245;-65
2023/08/20 01:47:35;;;;;;;9.90;5.73;;;19.70;99.90;;;;;;5010478;28;20414;-65
2023/08/20 01:50:02;;;;;;;13.37;5.93;;;19.60;99.90;;;;;;5010536;28;20446;-65
2023/08/20 01:52:29;;;;;;;7.70;4.20;;;19.70;99.90;;;;;;5010726;28;20453;-64
2023/08/20 01:54:54;;;;;;;9.77;5.23;;;19.60;99.90;;;;;;5010373;28;20512;-65
2023/08/20 01:57:20;;;;;;;10.47;5.40;;;19.60;99.90;;;;;;5009847;28;20428;-65
2023/08/20 01:59:47;;;;;;;7.93;5.33;;;19.60;99.90;;;;;;5010605;28;20194;-65
2023/08/20 02:02:13;;;;;;;11.07;5.63;;;19.60;99.90;;;;;;5001673;28;20679;-65
2023/08/20 02:04:39;;;;;;;9.23;4.80;;;19.60;99.90;;;;;;4999268;28;20557;-64
2023/08/20 02:07:04;;;;;;;8.73;5.03;;;19.50;99.90;;;;;;4998554;28;20207;-65
2023/08/20 02:09:30;;;;;;;11.27;5.30;;;19.50;99.90;;;;;;4996555;28;20241;-64
2023/08/20 02:11:55;;;;;;;8.13;5.47;;;19.50;99.90;;;;;;5004280;28;20266;-64
2023/08/20 02:14:21;;;;;;;7.70;4.73;;;19.60;99.90;;;;;;5009134;28;20182;-64
2023/08/20 02:16:48;;;;;;;9.63;5.73;;;19.50;99.90;;;;;;5010484;28;20233;-64
2023/08/20 02:19:14;;;;;;;9.13;5.70;;;19.50;99.90;;;;;;5010030;28;20182;-65
2023/08/20 02:21:40;;;;;;;12.10;5.60;;;19.50;99.90;;;;;;5010428;28;20463;-64
2023/08/20 02:24:06;;;;;;;8.13;4.43;;;19.50;99.90;;;;;;5009669;28;20447;-64
2023/08/20 02:26:32;;;;;;;13.23;5.07;;;19.50;99.90;;;;;;5010257;28;20527;-64
2023/08/20 02:28:58;;;;;;;10.40;5.87;;;19.50;99.90;;;;;;5009256;28;20931;-65
2023/08/20 02:31:23;;;;;;;13.33;5.17;;;19.50;99.90;;;;;;5008297;28;20648;-64
2023/08/20 02:33:49;;;;;;;13.70;5.53;;;19.40;99.90;;;;;;5001294;28;20755;-64
2023/08/20 02:36:15;;;;;;;19.30;5.33;;;19.40;99.90;;;;;;5002746;28;20187;-64
2023/08/20 02:38:41;;;;;;;9.13;4.30;;;19.40;99.90;;;;;;5009616;28;20187;-64
2023/08/20 02:41:06;;;;;;;11.60;5.40;;;19.40;99.90;;;;;;5010152;28;20202;-64
2023/08/20 02:43:32;;;;;;;11.80;5.30;;;19.30;99.90;;;;;;5008482;28;20270;-64
2023/08/20 02:45:58;;;;;;;8.03;4.90;;;19.30;99.90;;;;;;5010006;28;20679;-65
2023/08/20 02:48:27;;;;;;;10.57;6.57;;;19.30;99.90;;;;;;4998238;28;20244;-65
2023/08/20 02:50:55;;;;;;;8.40;5.00;;;19.20;99.90;;;;;;5010061;28;20171;-64
2023/08/20 02:53:21;;;;;;;13.40;5.53;;;19.20;99.90;;;;;;5003740;28;20810;-64
2023/08/20 02:55:47;;;;;;;9.73;5.90;;;19.20;99.90;;;;;;5010049;28;20436;-64
2023/08/20 02:58:13;;;;;;;10.07;6.00;;;19.20;99.90;;;;;;5011119;28;20425;-64
2023/08/20 03:00:38;;;;;;;10.40;5.53;;;19.20;99.90;;;;;;5014573;28;20183;-64
2023/08/20 03:03:08;;;;;;;10.47;6.47;;;19.20;99.90;;;;;;5000103;28;20216;-65
2023/08/20 03:05:34;;;;;;;9.20;5.90;;;19.20;99.90;;;;;;5006656;28;20194;-64
2023/08/20 03:08:00;;;;;;;11.47;6.50;;;19.20;99.90;;;;;;4994106;28;20430;-64
2023/08/20 03:10:27;;;;;;;9.33;5.20;;;19.10;99.90;;;;;;5000560;28;20419;-64
2023/08/20 03:12:53;;;;;;;14.00;6.43;;;19.10;99.90;;;;;;5012439;28;20184;-64
2023/08/20 03:15:18;;;;;;;11.30;5.57;;;19.10;99.90;;;;;;5012839;28;20433;-64
2023/08/20 03:17:44;;;;;;;7.97;5.00;;;19.10;99.90;;;;;;5013445;28;20301;-64
2023/08/20 03:20:10;;;;;;;9.67;5.50;;;19.10;99.90;;;;;;5013332;28;20245;-64
2023/08/20 03:22:38;;;;;;;10.97;5.07;;;19.10;99.90;;;;;;5013647;28;20663;-64
2023/08/20 03:25:04;;;;;;;11.47;6.77;;;19.10;99.90;;;;;;5013093;28;20462;-64
2023/08/20 03:27:30;;;;;;;10.97;6.30;;;19.10;99.90;;;;;;5012415;28;20418;-64
2023/08/20 03:29:56;;;;;;;10.03;5.73;;;19.00;99.90;;;;;;5012934;28;20425;-64
2023/08/20 03:32:22;;;;;;;13.23;6.03;;;19.00;99.90;;;;;;5009639;28;20179;-64
2023/08/20 03:34:47;;;;;;;9.20;5.53;;;19.00;99.90;;;;;;4997929;28;20187;-64
2023/08/20 03:37:13;;;;;;;9.33;5.97;;;18.90;99.90;;;;;;5001694;28;20183;-64
2023/08/20 03:39:38;;;;;;;10.57;6.53;;;18.90;99.90;;;;;;5013000;28;20202;-64
2023/08/20 03:42:04;;;;;;;13.20;5.60;;;18.90;99.90;;;;;;5008826;28;20640;-64
2023/08/20 03:44:31;;;;;;;9.13;5.63;;;18.90;99.90;;;;;;5012218;28;20185;-64
2023/08/20 03:46:56;;;;;;;18.20;5.80;;;19.00;99.90;;;;;;5013317;28;20274;-64
2023/08/20 03:49:22;;;;;;;15.63;6.00;;;19.00;99.90;;;;;;5013204;28;20951;-64
2023/08/20 03:51:47;;;;;;;10.40;6.20;;;19.00;99.90;;;;;;5013378;28;20218;-64
2023/08/20 03:54:13;;;;;;;8.27;4.60;;;18.90;99.90;;;;;;5012637;28;20560;-64
2023/08/20 03:56:39;;;;;;;10.10;5.30;;;18.90;99.90;;;;;;5012857;28;20226;-64
2023/08/20 03:59:05;;;;;;;13.33;5.37;;;18.90;99.90;;;;;;5012414;28;20455;-64
2023/08/20 04:01:31;;;;;;;10.00;5.40;;;18.90;99.90;;;;;;5009686;28;20191;-64
2023/08/20 04:03:56;;;;;;;10.37;5.53;;;18.90;99.90;;;;;;5005294;28;20610;-65
2023/08/20 04:06:22;;;;;;;12.70;4.83;;;18.80;99.90;;;;;;5006530;28;20215;-65
2023/08/20 04:08:48;;;;;;;9.70;5.77;;;18.90;99.90;;;;;;4992530;28;20184;-64
2023/08/20 04:11:14;;;;;;;13.90;6.20;;;18.90;99.90;;;;;;5003956;28;20241;-64
2023/08/20 04:13:42;;;;;;;12.63;5.20;;;18.80;99.90;;;;;;5005040;28;20856;-65
2023/08/20 04:16:08;;;;;;;15.30;5.73;;;18.80;99.90;;;;;;5012488;28;20189;-64
2023/08/20 04:18:34;;;;;;;9.93;5.17;;;18.80;99.90;;;;;;5012317;28;20521;-64
2023/08/20 04:20:59;;;;;;;8.50;4.83;;;18.80;99.90;;;;;;4986357;28;20282;-64
2023/08/20 04:23:25;;;;;;;13.13;6.50;;;18.80;99.90;;;;;;5011950;28;20637;-64
2023/08/20 04:25:50;;;;;;;9.23;5.30;;;18.70;99.90;;;;;;4986047;28;20198;-64
2023/08/20 04:28:16;;;;;;;10.43;6.50;;;18.70;99.90;;;;;;5011433;28;20205;-64
2023/08/20 04:30:42;;;;;;;13.90;6.70;;;18.70;99.90;;;;;;5012038;28;20222;-64
2023/08/20 04:33:07;;;;;;;12.30;6.97;;;18.80;99.90;;;;;;5008921;28;20191;-64
2023/08/20 04:35:33;;;;;;;12.20;5.53;;;18.80;99.90;;;;;;5000889;28;20187;-64
2023/08/20 04:37:59;;;;;;;9.20;5.20;;;18.80;99.90;;;;;;5012371;28;20198;-64
2023/08/20 04:40:25;;;;;;;8.33;5.93;;;18.80;99.90;;;;;;5011945;28;20446;-64
2023/08/20 04:42:51;;;;;;;13.07;5.60;;;18.70;99.90;;;;;;5009182;28;20183;-64
2023/08/20 04:45:19;;;;;;;10.30;5.80;;;18.70;99.90;;;;;;5011339;28;20570;-65
2023/08/20 04:47:47;;;;;;;10.43;5.53;;;18.70;99.90;;;;;;5011611;28;20433;-64
2023/08/20 04:50:13;;;;;;;9.93;5.33;;;18.80;99.90;;;;;;5012024;28;20418;-64
2023/08/20 04:52:39;;;;;;;11.10;6.20;;;18.80;99.90;;;;;;5011647;28;20422;-65
2023/08/20 04:55:07;;;;;;;10.57;5.63;;;18.80;99.90;;;;;;5011404;28;20354;-64
2023/08/20 04:57:32;;;;;;;11.40;5.73;;;18.80;99.90;;;;;;5011007;28;20430;-65
2023/08/20 04:59:58;;;;;;;11.40;6.43;;;18.80;99.90;;;;;;5011602;28;20433;-65
2023/08/20 05:02:24;;;;;;;8.17;5.33;;;18.80;99.90;;;;;;5001955;28;20270;-64
2023/08/20 05:04:50;;;;;;;12.03;6.17;;;18.80;99.90;;;;;;5011178;28;20253;-64
2023/08/20 05:07:15;;;;;;;12.23;5.50;;;18.80;99.90;;;;;;4997993;28;20206;-64
2023/08/20 05:09:41;;;;;;;13.67;7.03;;;18.80;99.90;;;;;;4998770;28;20894;-65
2023/08/20 05:12:07;;;;;;;13.67;6.83;;;18.80;99.90;;;;;;4995029;28;20240;-65
2023/08/20 05:14:33;;;;;;;15.40;7.37;;;18.90;99.90;;;;;;5010922;28;20207;-65
2023/08/20 05:16:58;;;;;;;12.47;6.43;;;18.90;99.90;;;;;;5011174;28;20430;-65
2023/08/20 05:19:24;;;;;;;9.67;6.17;;;18.90;99.90;;;;;;5011225;28;20187;-64
2023/08/20 05:21:50;;;;;;;14.40;6.60;;;19.00;99.90;;;;;;5011063;28;20506;-65
2023/08/20 05:24:15;;;;;;;11.17;5.67;;;19.10;99.90;;;;;;5010781;28;20179;-64
2023/08/20 05:26:41;;;;;;;11.63;6.30;;;19.10;99.90;;;;;;5011157;28;20222;-65
2023/08/20 05:29:06;;;;;;;17.33;6.70;;;19.20;99.90;;;;;;5010621;28;20259;-65
2023/08/20 05:31:32;;;;;;;12.77;6.50;;;19.30;99.90;;;;;;5008089;28;20242;-65
2023/08/20 05:33:58;;;;;;;10.03;6.00;;;19.30;99.90;;;;;;5005772;28;20176;-65
2023/08/20 05:36:23;;;;;;;12.07;6.20;;;19.40;99.90;;;;;;5003460;28;20632;-65
2023/08/20 05:38:49;;;;;;;12.30;6.07;;;19.40;99.90;;;;;;5010851;28;20183;-65
2023/08/20 05:41:15;;;;;;;8.00;5.70;;;19.40;99.90;;;;;;5008712;28;20202;-64
2023/08/20 05:43:41;;;;;;;11.03;6.43;;;19.50;99.90;;;;;;5008480;28;20662;-65
2023/08/20 05:46:06;;;;;;;11.23;5.97;;;19.50;99.90;;;;;;5010792;28;20215;-65
2023/08/20 05:48:32;;;;;;;11.40;5.40;;;19.60;99.90;;;;;;5010457;28;20719;-64
2023/08/20 05:50:57;;;;;;;9.10;6.23;;;19.70;99.90;;;;;;5011031;28;20191;-65
2023/08/20 05:53:23;;;;;;;8.90;5.83;;;19.70;99.90;;;;;;5010296;28;20183;-65
2023/08/20 05:55:49;;;;;;;9.47;5.50;;;19.80;99.90;;;;;;5010688;28;20203;-65
2023/08/20 05:58:15;;;;;;;11.80;5.90;;;19.80;99.90;;;;;;5010023;28;20191;-64
2023/08/20 06:00:40;;;;;;;9.83;6.00;;;19.90;99.90;;;;;;5010688;28;20270;-64
2023/08/20 06:03:09;;;;;;;10.60;5.37;;;20.00;99.90;;;;;;4999580;28;20261;-64
2023/08/20 06:05:35;;;;;;;11.43;6.97;;;20.10;99.90;;;;;;5010350;28;20211;-65
2023/08/20 06:08:00;;;;;;;10.00;5.00;;;20.20;99.90;;;;;;4990952;28;20433;-65
2023/08/20 06:10:26;;;;;;;9.30;5.40;;;20.30;99.90;;;;;;4997810;28;20206;-65
2023/08/20 06:12:52;;;;;;;16.67;7.27;;;20.50;99.90;;;;;;5001024;28;20612;-65
2023/08/20 06:15:18;;;;;;;9.73;6.93;;;20.60;99.90;;;;;;5011101;28;20183;-65
2023/08/20 06:17:43;;;;;;;14.17;6.43;;;20.70;99.90;;;;;;5010151;28;20887;-65
2023/08/20 06:20:11;;;;;;;21.33;6.10;;;20.90;99.90;;;;;;5010787;28;20278;-65
2023/08/20 06:22:37;;;;;;;15.63;7.07;;;21.10;99.90;;;;;;5010952;28;20214;-65
2023/08/20 06:25:04;;;;;;;21.90;7.63;;;21.40;99.90;;;;;;5009830;28;20547;-65
2023/08/20 06:27:30;;;;;;;13.40;6.90;;;21.50;99.90;;;;;;5010117;28;20430;-65
2023/08/20 06:29:55;;;;;;;12.30;6.60;;;21.50;99.90;;;;;;5010263;28;20472;-65
2023/08/20 06:32:21;;;;;;;10.10;5.70;;;21.60;99.90;;;;;;5007458;28;20192;-65
2023/08/20 06:34:47;;;;;;;13.70;6.23;;;21.80;99.90;;;;;;5003056;28;20191;-65
2023/08/20 06:37:12;;;;;;;13.37;6.57;;;21.90;99.90;;;;;;5013815;28;20524;-65
2023/08/20 06:39:38;;;;;;;14.03;6.70;;;22.10;99.90;;;;;;5014174;28;20205;-65
2023/08/20 06:42:03;;;;;;;12.57;5.63;;;22.20;99.90;;;;;;5011431;28;20515;-65
2023/08/20 06:44:29;;;;;;;14.30;6.93;;;22.50;99.90;;;;;;5005185;28;20191;-65
2023/08/20 06:46:55;;;;;;;9.73;5.90;;;22.70;99.90;;;;;;5013393;28;20179;-65
2023/08/20 06:49:20;;;;;;;11.97;6.20;;;22.80;99.90;;;;;;5014245;28;20179;-65
2023/08/20 06:51:46;;;;;;;9.87;5.20;;;23.00;99.90;;;;;;5014031;28;20217;-65
2023/08/20 06:54:11;;;;;;;12.43;6.10;;;23.10;99.90;;;;;;5013883;28;20266;-65
2023/08/20 06:56:37;;;;;;;8.80;5.80;;;23.40;99.90;;;;;;5013902;28;20548;-65
2023/08/20 06:59:03;;;;;;;11.23;6.57;;;23.50;99.90;;;;;;5013483;28;20193;-65
2023/08/20 07:01:29;;;;;;;8.73;6.20;;;23.60;99.90;;;;;;5011445;28;20216;-65
2023/08/20 07:03:54;;;;;;;8.00;5.37;;;23.70;99.90;;;;;;5006594;28;20202;-65
2023/08/20 07:06:20;;;;;;;12.83;6.53;;;23.90;99.90;;;;;;5007987;28;20458;-62
2023/08/20 07:08:46;;;;;;;8.47;5.40;;;24.20;99.90;;;;;;4993611;28;20183;-63
2023/08/20 07:11:12;;;;;;;11.10;6.10;;;24.50;99.90;;;;;;5006509;28;20309;-63
2023/08/20 07:13:37;;;;;;;9.37;5.97;;;24.50;99.90;;;;;;5011910;28;20262;-63
2023/08/20 07:16:03;;;;;;;11.20;6.00;;;24.50;99.90;;;;;;5012737;28;20280;-63
2023/08/20 07:18:29;;;;;;;12.13;6.10;;;25.00;99.90;;;;;;5013261;28;20204;-63
2023/08/20 07:20:55;;;;;;;10.20;5.50;;;25.40;99.90;;;;;;5013391;28;20186;-63
2023/08/20 07:23:22;;;;;;;17.17;6.00;;;25.90;99.90;;;;;;5012827;28;20178;-63
2023/08/20 07:25:48;;;;;;;10.73;5.90;;;25.80;99.90;;;;;;5013277;28;20457;-62
2023/08/20 07:28:14;;;;;;;13.20;6.70;;;25.90;99.90;;;;;;5012938;28;20178;-62
2023/08/20 07:30:40;;;;;;;11.77;5.37;;;26.30;99.90;;;;;;5013571;28;20724;-63
2023/08/20 07:33:06;;;;;;;10.73;6.17;;;26.40;99.90;;;;;;5003442;28;20658;-63
2023/08/20 07:35:32;;;;;;;8.48;5.82;;;27.30;99.90;;;;;;4993179;28;20245;-62
2023/08/20 07:37:57;;;;;;;8.32;5.00;;;28.00;99.90;;;;;;4987376;28;20651;-63
2023/08/20 07:40:23;;;;;;;10.60;5.97;;;29.00;99.90;;;;;;4991124;28;20207;-62
2023/08/20 07:42:50;;;;;;;12.60;4.68;;;29.60;99.90;;;;;;4993228;28;20230;-63
2023/08/20 07:45:16;;;;;;;8.55;4.53;;;29.60;99.90;;;;;;5003455;28;20201;-63
2023/08/20 07:47:41;;;;;;;9.38;4.50;;;29.20;99.90;;;;;;5012664;28;20190;-62
2023/08/20 07:50:07;;;;;;;6.35;3.97;;;29.00;99.90;;;;;;5012701;28;20189;-62
2023/08/20 07:52:33;;;;;;;10.35;4.80;;;29.10;99.90;;;;;;5012776;28;20265;-63
2023/08/20 07:54:59;;;;;;;10.63;4.43;;;29.40;99.90;;;;;;5012639;28;20220;-62
2023/08/20 07:57:24;;;;;;;13.50;4.60;;;29.90;99.90;;;;;;5012576;28;20196;-63
2023/08/20 07:59:50;;;;;;;11.38;3.80;;;30.20;99.90;;;;;;5012468;28;20199;-63
2023/08/20 08:02:16;;;;;;;9.93;5.55;;;30.50;99.60;;;;;;5012480;28;20185;-62
2023/08/20 08:04:42;;;;;;;10.45;5.05;;;30.60;99.30;;;;;;5004143;28;20179;-62
2023/08/20 08:07:09;;;;;;;8.07;4.32;;;30.30;99.60;;;;;;5000046;28;20180;-63
2023/08/20 08:09:34;;;;;;;6.82;4.68;;;29.90;99.90;;;;;;4998538;28;20182;-62
2023/08/20 08:12:00;;;;;;;12.20;5.38;;;30.00;99.80;;;;;;5006077;28;20194;-63
2023/08/20 08:14:26;;;;;;;7.90;5.22;;;30.10;99.90;;;;;;5010242;28;20437;-62
2023/08/20 08:16:52;;;;;;;6.57;4.40;;;30.40;99.70;;;;;;5012252;28;20302;-63
2023/08/20 08:19:19;;;;;;;14.02;5.30;;;30.70;99.50;;;;;;5012157;28;20190;-63
2023/08/20 08:21:45;;;;;;;11.85;5.15;;;30.60;99.20;;;;;;5012132;28;20179;-63
2023/08/20 08:24:12;;;;;;;11.63;4.85;;;31.10;98.80;;;;;;5011639;28;20194;-63
2023/08/20 08:26:37;;;;;;;9.60;4.63;;;31.30;97.70;;;;;;5012203;28;20217;-63
2023/08/20 08:29:04;;;;;;;9.05;4.85;;;31.80;96.70;;;;;;5011410;28;20186;-63
2023/08/20 08:31:30;;;;;;;6.85;4.32;;;32.20;96.50;;;;;;5012028;28;20201;-63
2023/08/20 08:33:56;;;;;;;6.95;4.45;;;32.40;96.30;;;;;;5006212;28;20176;-63
2023/08/20 08:36:21;;;;;;;13.85;6.75;;;32.40;95.70;;;;;;5004349;28;20194;-63
2023/08/20 08:38:47;;;;;;;7.20;4.43;;;32.20;95.70;;;;;;5011911;28;20639;-63
2023/08/20 08:41:13;;;;;;;17.67;5.25;;;32.20;95.70;;;;;;5012420;28;20654;-63
2023/08/20 08:43:40;;;;;;;6.75;4.10;;;32.20;95.80;;;;;;5010610;28;20268;-63
2023/08/20 08:46:07;;;;;;;11.38;4.45;;;32.70;95.00;;;;;;5011942;28;20249;-63
2023/08/20 08:48:35;;;;;;;8.27;4.15;;;33.00;94.10;;;;;;4999084;28;20180;-63
2023/08/20 08:51:01;;;;;;;7.03;4.68;;;33.20;93.80;;;;;;4992596;28;20171;-63
2023/08/20 08:53:27;;;;;;;6.10;4.03;;;33.40;93.20;;;;;;4987349;28;20792;-63
2023/08/20 08:55:52;;;;;;;13.80;4.22;;;33.50;91.60;;;;;;5004514;28;20822;-63
2023/08/20 08:58:18;;;;;;;7.40;4.80;;;33.30;92.10;;;;;;5010975;28;20277;-63
2023/08/20 09:00:44;;;;;;;8.32;4.40;;;33.60;91.00;;;;;;5011184;28;20309;-63
2023/08/20 09:03:09;;;;;;;9.45;3.65;;;33.50;90.60;;;;;;5010691;28;20270;-63
2023/08/20 09:05:48;;;;;;;14.30;4.35;;;33.20;91.20;;;;;;4989851;28;20203;-63
2023/08/20 09:08:21;;;;;;;7.65;3.40;;;33.50;89.60;;;;;;4991517;28;20206;-63
2023/08/20 09:10:49;;;;;;;6.18;3.60;;;33.20;90.10;;;;;;5000956;28;20263;-63
2023/08/20 09:13:15;;;;;;;5.90;3.35;;;33.50;86.10;;;;;;5010597;28;20213;-63
2023/08/20 09:15:41;;;;;;;6.40;3.90;;;33.60;85.00;;;;;;5010866;28;20266;-63
2023/08/20 09:18:10;;;;;;;4.35;2.63;;;32.50;87.10;;;;;;5011309;28;20795;-63
2023/08/20 09:20:38;;;;;;;11.25;4.57;;;32.90;89.10;;;;;;5011235;28;20207;-63
2023/08/20 09:23:10;;;;;;;8.48;4.35;;;33.00;89.20;;;;;;5010993;28;20248;-63
2023/08/20 09:25:35;;;;;;;8.45;3.20;;;33.10;90.00;;;;;;5010563;28;20214;-63
2023/08/20 09:28:04;;;;;;;7.40;3.90;;;33.20;90.00;;;;;;5010799;28;20197;-63
2023/08/20 09:30:30;;;;;;;6.43;3.65;;;33.10;90.00;;;;;;5010969;28;20206;-63
2023/08/20 09:33:11;;;;;;;12.82;5.50;;;33.40;90.60;;;;;;5011224;28;20222;-63
2023/08/20 09:35:37;;;;;;;24.65;4.40;;;33.50;88.30;;;;;;4998937;28;20180;-63
2023/08/20 09:38:05;;;;;;;8.15;4.82;;;33.50;86.40;;;;;;5010734;28;20183;-63
2023/08/20 09:40:31;;;;;;;5.80;3.50;;;33.50;85.50;;;;;;4984975;28;20202;-63
2023/08/20 09:42:57;;;;;;;5.85;3.67;;;32.90;89.00;;;;;;4996468;28;20186;-63
2023/08/20 09:45:28;;;;;;;9.50;4.20;;;32.90;90.70;;;;;;5010116;28;20202;-63
2023/08/20 09:47:59;;;;;;;6.50;4.20;;;33.20;87.60;;;;;;5010799;28;20179;-63
2023/08/20 09:50:26;;;;;;;5.40;3.88;;;33.20;87.80;;;;;;5010541;28;20678;-63
2023/08/20 09:53:09;;;;;;;7.05;4.13;;;33.50;87.50;;;;;;5010493;28;20527;-63
2023/08/20 09:55:38;;;;;;;5.90;4.10;;;33.50;87.40;;;;;;5010651;28;20281;-63
2023/08/20 09:58:05;;;;;;;10.15;4.13;;;33.30;89.20;;;;;;5010389;28;20182;-63
2023/08/20 10:00:32;;;;;;;6.43;4.28;;;32.70;88.90;;;;;;5010144;28;20178;-63
2023/08/20 10:02:58;;;;;;;6.85;2.90;;;33.00;88.80;;;;;;5010257;28;20253;-63
2023/08/20 10:05:24;;;;;;;6.88;4.28;;;32.70;91.00;;;;;;5002899;28;20206;-63
2023/08/20 10:07:50;;;;;;;8.57;4.13;;;31.80;91.10;;;;;;4992116;28;20178;-62
2023/08/20 10:10:16;;;;;;;10.88;3.70;;;31.50;92.50;;;;;;4997588;28;20179;-62
2023/08/20 10:12:44;;;;;;;15.82;4.20;;;31.40;92.60;;;;;;5002703;28;20572;-62
2023/08/20 10:15:12;;;;;;;14.68;3.92;;;31.50;92.10;;;;;;5009862;28;20602;-63
2023/08/20 10:17:38;;;;;;;10.90;3.92;;;31.10;92.40;;;;;;5010328;28;20650;-62
2023/08/20 10:20:05;;;;;;;5.97;3.95;;;30.80;93.90;;;;;;5010771;28;20191;-62
2023/08/20 10:22:37;;;;;;;8.43;3.97;;;31.20;92.20;;;;;;5010395;28;20210;-62
2023/08/20 10:25:06;;;;;;;6.28;4.30;;;31.00;92.00;;;;;;5009828;28;20202;-62
2023/08/20 10:27:34;;;;;;;7.53;4.25;;;30.90;94.10;;;;;;5010314;28;20174;-62
2023/08/20 10:30:00;;;;;;;14.85;5.13;;;30.80;93.30;;;;;;5009887;28;20187;-62
2023/08/20 10:32:49;;;;;;;8.93;4.60;;;30.50;93.50;;;;;;5010266;28;20278;-62
2023/08/20 10:35:45;;;;;;;9.65;4.95;;;30.40;93.20;;;;;;4998166;28;20182;-62
2023/08/20 10:38:16;;;;;;;6.10;4.55;;;30.50;93.30;;;;;;5009982;28;20533;-62
2023/08/20 10:40:55;;;;;;;6.20;4.25;;;30.60;94.90;;;;;;5010046;28;20729;-62
2023/08/20 10:43:31;;;;;;;6.45;4.18;;;30.80;94.40;;;;;;4996719;28;20186;-62
2023/08/20 10:46:07;;;;;;;6.88;4.15;;;31.00;95.40;;;;;;4992433;28;20195;-62
2023/08/20 10:48:36;;;;;;;7.28;4.10;;;31.20;94.10;;;;;;4998090;28;20547;-62
2023/08/20 10:51:15;;;;;;;8.75;4.57;;;31.10;95.50;;;;;;5004154;28;20182;-62
2023/08/20 10:53:43;;;;;;;7.10;4.28;;;31.20;94.60;;;;;;5009980;28;20559;-62
2023/08/20 10:56:11;;;;;;;6.25;4.25;;;31.10;95.30;;;;;;5009874;28;20403;-62
2023/08/20 10:58:40;;;;;;;10.50;5.28;;;31.00;95.50;;;;;;5009843;28;20369;-62
2023/08/20 11:01:20;;;;;;;8.57;4.82;;;31.30;95.40;;;;;;5009645;28;20229;-62
2023/08/20 11:03:48;;;;;;;7.03;4.43;;;31.40;95.40;;;;;;5003963;28;20365;-62
2023/08/20 11:06:14;;;;;;;9.02;4.78;;;31.60;93.90;;;;;;5003224;28;20305;-62
2023/08/20 11:08:41;;;;;;;10.02;4.78;;;31.60;94.70;;;;;;4990871;28;20274;-62
2023/08/20 11:11:07;;;;;;;11.35;4.65;;;31.30;94.50;;;;;;5000471;28;20194;-62
2023/08/20 11:13:34;;;;;;;7.20;4.43;;;31.50;94.50;;;;;;5003340;28;20671;-62
2023/08/20 11:16:01;;;;;;;7.35;4.50;;;31.60;94.60;;;;;;5009236;28;20547;-62
2023/08/20 11:18:27;;;;;;;8.95;5.20;;;31.40;95.00;;;;;;5010735;28;20618;-63
2023/08/20 11:20:55;;;;;;;11.13;4.38;;;31.60;95.50;;;;;;5013294;28;20273;-62
2023/08/20 11:23:22;;;;;;;23.92;4.45;;;31.70;94.70;;;;;;5012953;28;20221;-62
2023/08/20 11:25:47;;;;;;;10.60;4.30;;;31.90;94.30;;;;;;5013066;28;20206;-62
2023/08/20 11:28:13;;;;;;;19.35;4.80;;;31.70;93.50;;;;;;5012860;28;20225;-62
2023/08/20 11:30:39;;;;;;;9.10;5.20;;;31.50;94.50;;;;;;5013210;28;20233;-62
2023/08/20 11:33:05;;;;;;;5.85;3.95;;;31.20;95.60;;;;;;5013228;28;20351;-62
2023/08/20 11:35:32;;;;;;;11.15;4.85;;;31.40;95.10;;;;;;4999499;28;20183;-62
2023/08/20 11:37:58;;;;;;;7.65;4.13;;;31.60;95.10;;;;;;5013158;28;20245;-62
2023/08/20 11:40:24;;;;;;;6.82;4.88;;;31.70;96.10;;;;;;5012860;28;20206;-62
2023/08/20 11:42:50;;;;;;;7.95;5.15;;;31.80;94.30;;;;;;5000718;28;20198;-62
2023/08/20 11:45:16;;;;;;;7.85;5.45;;;32.10;94.90;;;;;;5011881;28;20210;-62
2023/08/20 11:47:42;;;;;;;8.65;4.93;;;32.20;94.00;;;;;;5012724;28;20552;-62
2023/08/20 11:50:09;;;;;;;10.18;5.45;;;32.40;93.80;;;;;;5012920;28;20179;-62
2023/08/20 11:52:36;;;;;;;14.20;5.47;;;32.30;93.80;;;;;;5012962;28;20179;-62
2023/08/20 11:55:03;;;;;;;7.63;5.22;;;32.20;93.60;;;;;;5013176;28;20190;-62
2023/08/20 11:57:29;;;;;;;9.75;6.18;;;32.20;94.50;;;;;;5012393;28;20187;-62
2023/08/20 11:59:59;;;;;;;8.90;5.22;;;32.30;94.80;;;;;;5012760;28;20179;-62
2023/08/20 12:02:27;;;;;;;15.40;5.53;;;32.50;93.20;;;;;;5012225;28;20186;-62
2023/08/20 12:04:56;;;;;;;9.88;5.07;;;32.70;93.00;;;;;;5004831;28;20245;-62
2023/08/20 12:07:26;;;;;;;13.93;5.68;;;32.50;93.10;;;;;;4998383;28;20573;-62
2023/08/20 12:09:55;;;;;;;8.02;4.85;;;32.50;93.00;;;;;;4999707;28;20202;-62
2023/08/20 12:12:22;;;;;;;9.07;4.22;;;32.60;92.80;;;;;;5001882;28;20631;-62
2023/08/20 12:14:48;;;;;;;9.73;5.15;;;32.60;93.30;;;;;;5011882;28;20493;-62
2023/08/20 12:17:18;;;;;;;6.28;4.40;;;32.30;93.00;;;;;;5012191;28;20727;-62
2023/08/20 12:19:45;;;;;;;9.85;5.57;;;32.40;93.10;;;;;;5012437;28;20613;-62
2023/08/20 12:22:10;;;;;;;10.00;5.63;;;32.40;93.10;;;;;;5012032;28;20274;-62
2023/08/20 12:24:36;;;;;;;10.10;5.03;;;32.50;92.70;;;;;;5012025;28;20269;-62
2023/08/20 12:27:02;;;;;;;9.30;4.25;;;32.70;92.20;;;;;;5011660;28;20563;-62
2023/08/20 12:29:28;;;;;;;7.72;5.10;;;32.70;91.50;;;;;;5012142;28;20218;-62
2023/08/20 12:31:54;;;;;;;9.43;5.88;;;32.60;92.40;;;;;;5012102;28;20187;-62
2023/08/20 12:34:21;;;;;;;7.88;4.78;;;32.40;92.40;;;;;;5002720;28;20272;-62
2023/08/20 12:36:47;;;;;;;11.10;4.82;;;32.40;92.50;;;;;;5007900;28;20513;-62
2023/08/20 12:39:14;;;;;;;8.18;5.22;;;32.30;92.00;;;;;;5011769;28;20201;-62
2023/08/20 12:41:39;;;;;;;8.50;4.75;;;32.20;92.20;;;;;;5009683;28;20584;-62